createdAt,value
2023-04-22T00:00:48.740Z,24.89
2023-04-22T00:01:48.748Z,24.95
2023-04-22T00:02:48.843Z,24.94
2023-04-22T00:03:48.932Z,24.88
2023-04-22T00:04:48.941Z,24.85
2023-04-22T00:05:48.896Z,24.89
2023-04-22T00:06:48.888Z,24.91
2023-04-22T00:07:48.884Z,24.85
2023-04-22T00:08:48.919Z,24.81
2023-04-22T00:09:48.936Z,24.82
2023-04-22T00:10:48.945Z,24.89
2023-04-22T00:11:48.964Z,24.85
2023-04-22T00:12:49.010Z,24.87
2023-04-22T00:13:49.071Z,24.81
2023-04-22T00:14:49.058Z,24.78
2023-04-22T00:15:49.109Z,24.78
2023-04-22T00:16:49.098Z,24.84
2023-04-22T00:17:49.188Z,24.84
2023-04-22T00:18:49.149Z,24.84
2023-04-22T00:19:49.219Z,24.79
2023-04-22T00:20:49.245Z,24.81
2023-04-22T00:21:49.227Z,24.82
2023-04-22T00:22:49.285Z,24.82
2023-04-22T00:23:49.304Z,24.87
2023-04-22T00:24:49.332Z,24.87
2023-04-22T00:25:49.368Z,24.87
2023-04-22T00:26:49.401Z,24.85
2023-04-22T00:27:49.423Z,24.92
2023-04-22T00:28:49.463Z,24.84
2023-04-22T00:29:49.494Z,24.87
2023-04-22T00:30:49.511Z,24.85
2023-04-22T00:31:49.618Z,24.77
2023-04-22T00:32:49.613Z,24.84
2023-04-22T00:33:49.597Z,24.88
2023-04-22T00:34:49.606Z,24.91
2023-04-22T00:35:49.633Z,24.84
2023-04-22T00:36:49.611Z,24.85
2023-04-22T00:37:49.632Z,24.81
2023-04-22T00:38:49.624Z,24.82
2023-04-22T00:39:49.643Z,24.91
2023-04-22T00:40:49.643Z,24.88
2023-04-22T00:41:49.638Z,24.88
2023-04-22T00:42:49.640Z,24.89
2023-04-22T00:43:49.630Z,24.84
2023-04-22T00:44:49.645Z,24.85
2023-04-22T00:45:49.642Z,24.89
2023-04-22T00:46:49.696Z,24.84
2023-04-22T00:47:49.751Z,24.87
2023-04-22T00:48:49.708Z,24.88
2023-04-22T00:49:49.730Z,24.88
2023-04-22T00:50:49.766Z,24.85
2023-04-22T00:51:49.812Z,24.88
2023-04-22T00:52:49.806Z,24.85
2023-04-22T00:53:49.846Z,24.88
2023-04-22T00:54:49.861Z,24.86
2023-04-22T00:55:49.836Z,24.90
2023-04-22T00:56:49.850Z,24.89
2023-04-22T00:57:49.868Z,24.84
2023-04-22T00:58:49.836Z,24.87
2023-04-22T00:59:49.841Z,24.92
2023-04-22T01:00:49.911Z,24.92
2023-04-22T01:01:49.890Z,24.92
2023-04-22T01:02:49.986Z,24.88
2023-04-22T01:03:50.214Z,24.82
2023-04-22T01:04:49.834Z,24.81
2023-04-22T01:05:49.831Z,24.89
2023-04-22T01:06:49.885Z,24.91
2023-04-22T01:07:49.856Z,24.90
2023-04-22T01:08:49.916Z,24.84
2023-04-22T01:09:49.915Z,24.88
2023-04-22T01:10:49.949Z,24.89
2023-04-22T01:11:49.992Z,24.89
2023-04-22T01:12:50.005Z,24.82
2023-04-22T01:13:50.018Z,24.84
2023-04-22T01:14:50.092Z,24.88
2023-04-22T01:15:50.120Z,24.89
2023-04-22T01:16:50.250Z,24.87
2023-04-22T01:17:50.244Z,24.84
2023-04-22T01:18:50.182Z,24.81
2023-04-22T01:19:50.248Z,24.84
2023-04-22T01:20:50.272Z,24.81
2023-04-22T01:21:50.279Z,24.82
2023-04-22T01:22:50.335Z,24.84
2023-04-22T01:23:50.362Z,24.77
2023-04-22T01:24:50.369Z,24.82
2023-04-22T01:25:50.365Z,24.81
2023-04-22T01:26:50.392Z,24.78
2023-04-22T01:27:50.369Z,24.81
2023-04-22T01:28:50.383Z,24.70
2023-04-22T01:29:50.377Z,24.72
2023-04-22T01:30:50.367Z,24.71
2023-04-22T01:31:50.405Z,24.75
2023-04-22T01:32:50.425Z,24.75
2023-04-22T01:33:50.384Z,24.75
2023-04-22T01:34:50.406Z,24.78
2023-04-22T01:35:50.389Z,24.79
2023-04-22T01:36:50.383Z,24.82
2023-04-22T01:37:50.357Z,24.79
2023-04-22T01:38:50.389Z,24.82
2023-04-22T01:39:50.379Z,24.82
2023-04-22T01:40:50.378Z,24.78
2023-04-22T01:41:50.357Z,24.75
2023-04-22T01:42:50.371Z,24.74
2023-04-22T01:43:50.369Z,24.78
2023-04-22T01:44:50.367Z,24.79
2023-04-22T01:45:50.415Z,24.79
2023-04-22T01:46:50.387Z,24.79
2023-04-22T01:47:50.418Z,24.81
2023-04-22T01:48:50.367Z,24.75
2023-04-22T01:49:50.362Z,24.75
2023-04-22T01:50:50.406Z,24.75
2023-04-22T01:51:50.378Z,24.71
2023-04-22T01:52:50.373Z,24.69
2023-04-22T01:53:50.388Z,24.75
2023-04-22T01:54:50.401Z,24.72
2023-04-22T01:55:50.409Z,24.78
2023-04-22T01:56:50.389Z,24.81
2023-04-22T01:57:50.404Z,24.75
2023-04-22T01:58:50.417Z,24.69
2023-04-22T01:59:50.389Z,24.67
2023-04-22T02:00:50.402Z,24.74
2023-04-22T02:01:50.562Z,24.69
2023-04-22T02:02:50.519Z,24.71
2023-04-22T02:03:50.605Z,24.69
2023-04-22T02:04:50.499Z,24.74
2023-04-22T02:05:50.487Z,24.78
2023-04-22T02:06:50.490Z,24.79
2023-04-22T02:07:50.479Z,24.84
2023-04-22T02:08:50.483Z,24.75
2023-04-22T02:09:50.937Z,24.67
2023-04-22T02:10:50.498Z,24.71
2023-04-22T02:11:50.470Z,24.75
2023-04-22T02:12:50.501Z,24.75
2023-04-22T02:13:50.483Z,24.74
2023-04-22T02:14:50.494Z,24.79
2023-04-22T02:15:50.546Z,24.72
2023-04-22T02:16:50.506Z,24.77
2023-04-22T02:17:50.498Z,24.78
2023-04-22T02:18:50.529Z,24.79
2023-04-22T02:19:50.563Z,24.75
2023-04-22T02:20:50.511Z,24.75
2023-04-22T02:21:50.476Z,24.77
2023-04-22T02:22:50.536Z,24.77
2023-04-22T02:23:50.548Z,24.75
2023-04-22T02:24:50.606Z,24.77
2023-04-22T02:25:50.602Z,24.77
2023-04-22T02:26:50.583Z,24.77
2023-04-22T02:27:50.598Z,24.79
2023-04-22T02:28:50.602Z,24.72
2023-04-22T02:29:50.596Z,24.79
2023-04-22T02:30:50.630Z,24.75
2023-04-22T02:31:50.749Z,24.77
2023-04-22T02:32:50.641Z,24.73
2023-04-22T02:33:50.616Z,24.81
2023-04-22T02:34:50.601Z,24.75
2023-04-22T02:35:50.666Z,24.72
2023-04-22T02:36:50.655Z,24.77
2023-04-22T02:37:50.724Z,24.72
2023-04-22T02:38:50.714Z,24.75
2023-04-22T02:39:50.765Z,24.76
2023-04-22T02:40:50.773Z,24.79
2023-04-22T02:41:50.813Z,24.72
2023-04-22T02:42:50.845Z,24.78
2023-04-22T02:43:50.845Z,24.71
2023-04-22T02:44:50.920Z,24.81
2023-04-22T02:45:50.916Z,24.77
2023-04-22T02:46:51.090Z,24.77
2023-04-22T02:47:51.018Z,24.72
2023-04-22T02:48:50.999Z,24.71
2023-04-22T02:49:51.047Z,24.72
2023-04-22T02:50:51.093Z,24.73
2023-04-22T02:51:51.145Z,24.78
2023-04-22T02:52:51.149Z,24.68
2023-04-22T02:53:51.157Z,24.73
2023-04-22T02:54:51.218Z,24.69
2023-04-22T02:55:51.204Z,24.74
2023-04-22T02:56:51.252Z,24.72
2023-04-22T02:57:51.235Z,24.75
2023-04-22T02:58:51.266Z,24.78
2023-04-22T02:59:51.249Z,24.73
2023-04-22T03:00:51.347Z,24.73
2023-04-22T03:01:51.317Z,24.78
2023-04-22T03:02:51.536Z,24.78
2023-04-22T03:03:51.374Z,24.76
2023-04-22T03:04:51.266Z,24.81
2023-04-22T03:05:51.288Z,24.79
2023-04-22T03:06:51.273Z,24.76
2023-04-22T03:07:51.290Z,24.76
2023-04-22T03:08:51.292Z,24.81
2023-04-22T03:09:51.303Z,24.78
2023-04-22T03:10:51.327Z,24.75
2023-04-22T03:11:51.290Z,24.76
2023-04-22T03:12:51.314Z,24.73
2023-04-22T03:13:51.364Z,24.75
2023-04-22T03:14:51.303Z,24.81
2023-04-22T03:15:51.291Z,24.78
2023-04-22T03:16:51.401Z,24.78
2023-04-22T03:17:51.329Z,24.73
2023-04-22T03:18:51.306Z,24.79
2023-04-22T03:19:51.348Z,24.75
2023-04-22T03:20:51.321Z,24.75
2023-04-22T03:21:51.326Z,24.73
2023-04-22T03:22:51.346Z,24.75
2023-04-22T03:23:51.352Z,24.78
2023-04-22T03:24:51.332Z,24.75
2023-04-22T03:25:51.368Z,24.73
2023-04-22T03:26:51.370Z,24.78
2023-04-22T03:27:51.367Z,24.75
2023-04-22T03:28:51.354Z,24.78
2023-04-22T03:29:51.364Z,24.73
2023-04-22T03:30:51.353Z,24.75
2023-04-22T03:31:51.404Z,24.69
2023-04-22T03:32:51.401Z,24.75
2023-04-22T03:33:51.408Z,24.68
2023-04-22T03:34:51.390Z,24.73
2023-04-22T03:35:51.376Z,24.69
2023-04-22T03:36:51.406Z,24.78
2023-04-22T03:37:51.434Z,24.74
2023-04-22T03:38:51.399Z,24.67
2023-04-22T03:39:51.426Z,24.66
2023-04-22T03:40:51.809Z,24.65
2023-04-22T03:41:51.445Z,24.72
2023-04-22T03:42:51.431Z,24.71
2023-04-22T03:43:51.461Z,24.69
2023-04-22T03:44:51.438Z,24.73
2023-04-22T03:45:51.539Z,24.76
2023-04-22T03:46:51.479Z,24.73
2023-04-22T03:47:51.581Z,24.72
2023-04-22T03:48:51.515Z,24.73
2023-04-22T03:49:51.545Z,24.78
2023-04-22T03:50:51.534Z,24.70
2023-04-22T03:51:51.540Z,24.74
2023-04-22T03:52:51.556Z,24.78
2023-04-22T03:53:51.523Z,24.79
2023-04-22T03:54:51.568Z,24.76
2023-04-22T03:55:51.576Z,24.76
2023-04-22T03:56:51.980Z,24.76
2023-04-22T03:57:51.591Z,24.80
2023-04-22T03:58:51.567Z,24.79
2023-04-22T03:59:51.590Z,24.75
2023-04-22T04:00:51.575Z,24.76
2023-04-22T04:01:51.605Z,24.73
2023-04-22T04:02:51.728Z,24.74
2023-04-22T04:03:51.875Z,24.76
2023-04-22T04:04:51.909Z,24.76
2023-04-22T04:05:51.847Z,24.76
2023-04-22T04:06:51.706Z,24.79
2023-04-22T04:07:51.740Z,24.78
2023-04-22T04:08:51.750Z,24.78
2023-04-22T04:09:51.768Z,24.74
2023-04-22T04:10:51.784Z,24.76
2023-04-22T04:11:51.778Z,24.82
2023-04-22T04:12:51.822Z,24.77
2023-04-22T04:13:51.806Z,24.77
2023-04-22T04:14:51.797Z,24.80
2023-04-22T04:15:51.865Z,24.83
2023-04-22T04:16:51.974Z,24.77
2023-04-22T04:17:51.872Z,24.79
2023-04-22T04:18:51.870Z,24.73
2023-04-22T04:19:51.853Z,24.76
2023-04-22T04:20:51.872Z,24.76
2023-04-22T04:21:51.843Z,24.80
2023-04-22T04:22:51.845Z,24.76
2023-04-22T04:23:51.874Z,24.76
2023-04-22T04:24:51.894Z,24.79
2023-04-22T04:25:51.927Z,24.78
2023-04-22T04:26:51.899Z,24.80
2023-04-22T04:27:51.923Z,24.80
2023-04-22T04:28:51.909Z,24.84
2023-04-22T04:29:51.941Z,24.78
2023-04-22T04:30:51.942Z,24.76
2023-04-22T04:31:52.193Z,24.74
2023-04-22T04:32:51.992Z,24.76
2023-04-22T04:33:51.928Z,24.76
2023-04-22T04:34:51.928Z,24.77
2023-04-22T04:35:51.975Z,24.80
2023-04-22T04:36:51.976Z,24.80
2023-04-22T04:37:51.960Z,24.73
2023-04-22T04:38:54.305Z,24.74
2023-04-22T04:39:51.992Z,24.76
2023-04-22T04:40:51.985Z,24.80
2023-04-22T04:41:51.977Z,24.70
2023-04-22T04:42:51.949Z,24.77
2023-04-22T04:43:51.967Z,24.74
2023-04-22T04:44:51.925Z,24.74
2023-04-22T04:45:51.957Z,24.80
2023-04-22T04:46:52.004Z,24.69
2023-04-22T04:47:51.937Z,24.76
2023-04-22T04:48:51.901Z,24.71
2023-04-22T04:49:51.884Z,24.73
2023-04-22T04:50:51.895Z,24.73
2023-04-22T04:51:51.901Z,24.70
2023-04-22T04:52:52.987Z,24.68
2023-04-22T04:53:51.866Z,24.70
2023-04-22T04:54:51.882Z,24.74
2023-04-22T04:55:51.864Z,24.70
2023-04-22T04:56:51.887Z,24.74
2023-04-22T04:57:51.860Z,24.72
2023-04-22T04:58:51.847Z,24.71
2023-04-22T04:59:51.860Z,24.70
2023-04-22T05:00:51.828Z,24.76
2023-04-22T05:01:51.867Z,24.73
2023-04-22T05:02:51.932Z,24.71
2023-04-22T05:03:51.956Z,24.74
2023-04-22T05:04:51.932Z,24.72
2023-04-22T05:05:51.777Z,24.70
2023-04-22T05:06:51.803Z,24.74
2023-04-22T05:07:51.806Z,24.66
2023-04-22T05:08:51.762Z,24.66
2023-04-22T05:09:51.807Z,24.67
2023-04-22T05:10:51.766Z,24.69
2023-04-22T05:11:51.756Z,24.72
2023-04-22T05:12:51.778Z,24.72
2023-04-22T05:13:51.745Z,24.66
2023-04-22T05:14:51.732Z,24.73
2023-04-22T05:15:51.734Z,24.71
2023-04-22T05:16:51.797Z,24.73
2023-04-22T05:17:51.762Z,24.77
2023-04-22T05:18:51.721Z,24.70
2023-04-22T05:19:51.688Z,24.71
2023-04-22T05:20:51.709Z,24.74
2023-04-22T05:21:51.689Z,24.76
2023-04-22T05:22:51.713Z,24.72
2023-04-22T05:23:51.695Z,24.67
2023-04-22T05:24:51.677Z,24.72
2023-04-22T05:25:53.299Z,24.73
2023-04-22T05:26:51.684Z,24.72
2023-04-22T05:27:51.695Z,24.69
2023-04-22T05:28:51.756Z,24.74
2023-04-22T05:29:51.769Z,24.76
2023-04-22T05:30:51.806Z,24.77
2023-04-22T05:31:51.882Z,24.72
2023-04-22T05:32:51.902Z,24.72
2023-04-22T05:33:51.876Z,24.70
2023-04-22T05:34:51.946Z,24.71
2023-04-22T05:35:51.957Z,24.68
2023-04-22T05:36:51.973Z,24.76
2023-04-22T05:37:52.015Z,24.75
2023-04-22T05:38:52.039Z,24.71
2023-04-22T05:39:52.089Z,24.66
2023-04-22T05:40:52.133Z,24.65
2023-04-22T05:41:52.163Z,24.64
2023-04-22T05:42:52.192Z,24.61
2023-04-22T05:43:52.211Z,24.66
2023-04-22T05:44:52.221Z,24.69
2023-04-22T05:45:52.286Z,24.66
2023-04-22T05:46:52.295Z,24.68
2023-04-22T05:47:52.363Z,24.71
2023-04-22T05:48:52.381Z,24.73
2023-04-22T05:49:52.382Z,24.75
2023-04-22T05:50:52.402Z,24.72
2023-04-22T05:51:52.449Z,24.79
2023-04-22T05:52:52.465Z,24.73
2023-04-22T05:53:52.514Z,24.81
2023-04-22T05:54:52.499Z,24.81
2023-04-22T05:55:52.570Z,24.84
2023-04-22T05:56:52.588Z,24.84
2023-04-22T05:57:52.637Z,24.79
2023-04-22T05:58:52.659Z,24.81
2023-04-22T05:59:52.681Z,24.79
2023-04-22T06:00:52.672Z,24.84
2023-04-22T06:01:52.747Z,24.82
2023-04-22T06:02:52.878Z,24.79
2023-04-22T06:03:52.990Z,24.82
2023-04-22T06:04:53.161Z,24.78
2023-04-22T06:05:52.861Z,24.81
2023-04-22T06:06:52.758Z,24.77
2023-04-22T06:07:52.743Z,24.78
2023-04-22T06:08:52.746Z,24.75
2023-04-22T06:10:02.159Z,24.77
2023-04-22T06:10:53.759Z,24.75
2023-04-22T06:11:52.727Z,24.70
2023-04-22T06:12:52.727Z,24.77
2023-04-22T06:13:52.739Z,24.75
2023-04-22T06:14:52.722Z,24.74
2023-04-22T06:15:52.857Z,24.78
2023-04-22T06:16:52.759Z,24.75
2023-04-22T06:17:52.734Z,24.78
2023-04-22T06:18:52.683Z,24.77
2023-04-22T06:19:52.693Z,24.80
2023-04-22T06:20:52.675Z,24.72
2023-04-22T06:21:52.682Z,24.81
2023-04-22T06:22:52.652Z,24.77
2023-04-22T06:23:52.629Z,24.78
2023-04-22T06:24:52.714Z,24.82
2023-04-22T06:25:52.632Z,24.79
2023-04-22T06:26:52.630Z,24.77
2023-04-22T06:27:52.627Z,24.85
2023-04-22T06:28:52.623Z,24.81
2023-04-22T06:29:52.621Z,24.74
2023-04-22T06:30:52.639Z,24.78
2023-04-22T06:31:52.621Z,24.74
2023-04-22T06:32:52.632Z,24.83
2023-04-22T06:33:52.588Z,24.80
2023-04-22T06:34:52.551Z,24.78
2023-04-22T06:35:52.563Z,24.77
2023-04-22T06:36:52.576Z,24.77
2023-04-22T06:37:52.548Z,24.76
2023-04-22T06:38:52.572Z,24.79
2023-04-22T06:39:52.518Z,24.76
2023-04-22T06:40:52.520Z,24.73
2023-04-22T06:41:52.510Z,24.80
2023-04-22T06:42:52.521Z,24.80
2023-04-22T06:43:52.538Z,24.77
2023-04-22T06:44:52.526Z,24.76
2023-04-22T06:45:52.519Z,24.77
2023-04-22T06:46:53.041Z,24.72
2023-04-22T06:47:52.690Z,24.75
2023-04-22T06:48:52.583Z,24.69
2023-04-22T06:49:52.585Z,24.69
2023-04-22T06:50:52.626Z,24.71
2023-04-22T06:51:52.639Z,24.67
2023-04-22T06:52:52.680Z,24.72
2023-04-22T06:53:52.710Z,24.68
2023-04-22T06:54:52.741Z,24.62
2023-04-22T06:55:52.716Z,24.64
2023-04-22T06:56:52.785Z,24.60
2023-04-22T06:57:52.794Z,24.63
2023-04-22T06:58:52.815Z,24.66
2023-04-22T06:59:52.849Z,24.67
2023-04-22T07:00:52.882Z,24.63
2023-04-22T07:01:52.907Z,24.63
2023-04-22T07:02:52.999Z,24.59
2023-04-22T07:03:52.978Z,24.59
2023-04-22T07:04:52.950Z,24.65
2023-04-22T07:05:53.031Z,24.59
2023-04-22T07:06:53.128Z,24.66
2023-04-22T07:07:53.082Z,24.61
2023-04-22T07:08:53.110Z,24.62
2023-04-22T07:09:53.185Z,24.62
2023-04-22T07:10:53.178Z,24.60
2023-04-22T07:11:53.285Z,24.55
2023-04-22T07:12:53.231Z,24.54
2023-04-22T07:13:53.234Z,24.57
2023-04-22T07:14:53.250Z,24.54
2023-04-22T07:15:53.307Z,24.52
2023-04-22T07:16:53.428Z,24.48
2023-04-22T07:17:53.414Z,24.52
2023-04-22T07:18:53.506Z,24.50
2023-04-22T07:19:53.539Z,24.55
2023-04-22T07:20:53.621Z,24.48
2023-04-22T07:21:53.686Z,24.48
2023-04-22T07:22:53.754Z,24.50
2023-04-22T07:23:53.761Z,24.51
2023-04-22T07:24:53.848Z,24.50
2023-04-22T07:25:53.884Z,24.50
2023-04-22T07:26:53.979Z,24.49
2023-04-22T07:27:54.041Z,24.49
2023-04-22T07:28:54.101Z,24.53
2023-04-22T07:29:54.160Z,24.50
2023-04-22T07:30:54.200Z,24.51
2023-04-22T07:31:54.324Z,24.50
2023-04-22T07:32:54.453Z,24.47
2023-04-22T07:33:54.394Z,24.49
2023-04-22T07:34:54.431Z,24.47
2023-04-22T07:35:54.508Z,24.48
2023-04-22T07:36:54.554Z,24.46
2023-04-22T07:37:54.628Z,24.48
2023-04-22T07:38:54.635Z,24.50
2023-04-22T07:39:54.633Z,24.48
2023-04-22T07:40:54.665Z,24.46
2023-04-22T07:41:54.660Z,24.46
2023-04-22T07:42:54.696Z,24.49
2023-04-22T07:43:54.694Z,24.49
2023-04-22T07:44:54.695Z,24.50
2023-04-22T07:45:54.728Z,24.49
2023-04-22T07:46:54.733Z,24.51
2023-04-22T07:47:54.748Z,24.46
2023-04-22T07:48:54.719Z,24.48
2023-04-22T07:49:54.745Z,24.46
2023-04-22T07:50:54.737Z,24.44
2023-04-22T07:51:54.770Z,24.45
2023-04-22T07:52:54.787Z,24.46
2023-04-22T07:53:54.807Z,24.45
2023-04-22T07:54:54.794Z,24.45
2023-04-22T07:55:54.820Z,24.45
2023-04-22T07:56:54.830Z,24.45
2023-04-22T07:57:54.837Z,24.39
2023-04-22T07:58:54.835Z,24.45
2023-04-22T07:59:54.858Z,24.45
2023-04-22T08:00:54.916Z,24.43
2023-04-22T08:01:54.903Z,24.48
2023-04-22T08:02:55.047Z,24.45
2023-04-22T08:03:55.181Z,24.45
2023-04-22T08:04:55.034Z,24.46
2023-04-22T08:05:54.980Z,24.43
2023-04-22T08:06:55.011Z,24.48
2023-04-22T08:07:55.050Z,24.47
2023-04-22T08:08:55.106Z,24.47
2023-04-22T08:09:55.160Z,24.47
2023-04-22T08:10:55.223Z,24.47
2023-04-22T08:11:55.282Z,24.48
2023-04-22T08:12:55.320Z,24.51
2023-04-22T08:13:55.389Z,24.48
2023-04-22T08:14:55.487Z,24.43
2023-04-22T08:15:55.506Z,24.48
2023-04-22T08:16:55.525Z,24.51
2023-04-22T08:17:55.589Z,24.54
2023-04-22T08:18:55.595Z,24.48
2023-04-22T08:19:55.624Z,24.46
2023-04-22T08:20:55.693Z,24.48
2023-04-22T08:21:55.731Z,24.47
2023-04-22T08:22:55.733Z,24.50
2023-04-22T08:23:55.784Z,24.47
2023-04-22T08:24:55.877Z,24.48
2023-04-22T08:25:55.857Z,24.46
2023-04-22T08:26:55.925Z,24.50
2023-04-22T08:27:55.966Z,24.50
2023-04-22T08:28:55.991Z,24.54
2023-04-22T08:29:56.040Z,24.50
2023-04-22T08:30:56.140Z,24.53
2023-04-22T08:31:56.109Z,24.53
2023-04-22T08:32:56.194Z,24.51
2023-04-22T08:33:56.266Z,24.50
2023-04-22T08:35:03.888Z,24.49
2023-04-22T08:35:57.198Z,24.53
2023-04-22T08:36:56.199Z,24.53
2023-04-22T08:37:56.198Z,24.54
2023-04-22T08:38:56.184Z,24.51
2023-04-22T08:39:56.155Z,24.51
2023-04-22T08:40:56.160Z,24.50
2023-04-22T08:41:56.199Z,24.55
2023-04-22T08:42:56.152Z,24.49
2023-04-22T08:43:56.127Z,24.51
2023-04-22T08:44:56.167Z,24.54
2023-04-22T08:45:56.125Z,24.53
2023-04-22T08:46:56.234Z,24.56
2023-04-22T08:47:56.191Z,24.54
2023-04-22T08:48:56.109Z,24.52
2023-04-22T08:49:56.104Z,24.52
2023-04-22T08:50:56.087Z,24.55
2023-04-22T08:51:56.116Z,24.53
2023-04-22T08:52:56.067Z,24.55
2023-04-22T08:53:56.080Z,24.56
2023-04-22T08:54:56.088Z,24.57
2023-04-22T08:55:56.139Z,24.58
2023-04-22T08:56:56.115Z,24.52
2023-04-22T08:57:56.170Z,24.53
2023-04-22T08:58:56.174Z,24.53
2023-04-22T08:59:56.161Z,24.56
2023-04-22T09:00:56.206Z,24.59
2023-04-22T09:01:56.242Z,24.58
2023-04-22T09:02:56.732Z,24.62
2023-04-22T09:03:56.296Z,24.62
2023-04-22T09:04:56.316Z,24.59
2023-04-22T09:05:56.275Z,24.59
2023-04-22T09:06:56.282Z,24.56
2023-04-22T09:07:56.314Z,24.62
2023-04-22T09:08:56.316Z,24.60
2023-04-22T09:09:56.321Z,24.56
2023-04-22T09:10:56.335Z,24.55
2023-04-22T09:11:56.324Z,24.60
2023-04-22T09:12:56.392Z,24.59
2023-04-22T09:13:56.406Z,24.62
2023-04-22T09:14:56.418Z,24.59
2023-04-22T09:15:59.333Z,24.60
2023-04-22T09:16:56.559Z,24.62
2023-04-22T09:17:56.447Z,24.60
2023-04-22T09:18:56.367Z,24.58
2023-04-22T09:19:56.389Z,24.63
2023-04-22T09:20:56.372Z,24.61
2023-04-22T09:21:56.378Z,24.59
2023-04-22T09:22:56.359Z,24.69
2023-04-22T09:23:56.364Z,24.65
2023-04-22T09:24:56.328Z,24.65
2023-04-22T09:25:56.353Z,24.65
2023-04-22T09:26:56.356Z,24.58
2023-04-22T09:27:56.393Z,24.63
2023-04-22T09:28:56.308Z,24.63
2023-04-22T09:29:56.318Z,24.66
2023-04-22T09:30:56.334Z,24.65
2023-04-22T09:31:56.333Z,24.62
2023-04-22T09:32:56.476Z,24.65
2023-04-22T09:33:56.286Z,24.68
2023-04-22T09:34:56.270Z,24.63
2023-04-22T09:35:56.274Z,24.64
2023-04-22T09:36:56.303Z,24.66
2023-04-22T09:37:56.283Z,24.65
2023-04-22T09:38:56.275Z,24.68
2023-04-22T09:39:56.250Z,24.61
2023-04-22T09:40:56.250Z,24.64
2023-04-22T09:41:56.220Z,24.62
2023-04-22T09:42:56.238Z,24.64
2023-04-22T09:43:56.237Z,24.65
2023-04-22T09:44:56.210Z,24.65
2023-04-22T09:45:56.226Z,24.66
2023-04-22T09:46:56.220Z,24.66
2023-04-22T09:47:56.228Z,24.68
2023-04-22T09:48:56.173Z,24.66
2023-04-22T09:49:56.190Z,24.64
2023-04-22T09:50:56.180Z,24.65
2023-04-22T09:51:56.141Z,24.68
2023-04-22T09:52:56.158Z,24.66
2023-04-22T09:53:56.148Z,24.63
2023-04-22T09:54:56.139Z,24.66
2023-04-22T09:55:56.218Z,24.66
2023-04-22T09:56:56.135Z,24.68
2023-04-22T09:57:56.152Z,24.64
2023-04-22T09:58:56.102Z,24.67
2023-04-22T09:59:56.093Z,24.63
2023-04-22T10:00:56.128Z,24.66
2023-04-22T10:01:56.113Z,24.64
2023-04-22T10:02:56.134Z,24.67
2023-04-22T10:03:56.107Z,24.64
2023-04-22T10:04:56.061Z,24.63
2023-04-22T10:05:56.054Z,24.63
2023-04-22T10:06:56.086Z,24.63
2023-04-22T10:07:56.081Z,24.64
2023-04-22T10:08:56.057Z,24.63
2023-04-22T10:09:56.035Z,24.70
2023-04-22T10:10:56.036Z,24.64
2023-04-22T10:11:56.029Z,24.69
2023-04-22T10:12:56.039Z,24.67
2023-04-22T10:13:56.008Z,24.70
2023-04-22T10:14:56.049Z,24.70
2023-04-22T10:15:56.004Z,24.71
2023-04-22T10:16:56.114Z,24.73
2023-04-22T10:17:56.063Z,24.67
2023-04-22T10:18:55.979Z,24.75
2023-04-22T10:19:55.985Z,24.76
2023-04-22T10:20:55.973Z,24.73
2023-04-22T10:21:55.985Z,24.76
2023-04-22T10:22:55.978Z,24.73
2023-04-22T10:23:55.936Z,24.70
2023-04-22T10:24:55.968Z,24.77
2023-04-22T10:25:55.986Z,24.76
2023-04-22T10:26:57.115Z,24.77
2023-04-22T10:27:55.935Z,24.81
2023-04-22T10:28:55.917Z,24.77
2023-04-22T10:29:55.935Z,24.80
2023-04-22T10:30:55.927Z,24.78
2023-04-22T10:31:55.930Z,24.77
2023-04-22T10:32:56.010Z,24.81
2023-04-22T10:33:55.914Z,24.81
2023-04-22T10:34:55.888Z,24.75
2023-04-22T10:35:55.893Z,24.80
2023-04-22T10:36:55.864Z,24.79
2023-04-22T10:37:55.859Z,24.80
2023-04-22T10:38:55.847Z,24.80
2023-04-22T10:39:55.894Z,24.80
2023-04-22T10:40:56.057Z,24.80
2023-04-22T10:41:55.950Z,24.78
2023-04-22T10:42:55.985Z,24.80
2023-04-22T10:43:55.999Z,24.79
2023-04-22T10:44:56.044Z,24.76
2023-04-22T10:45:56.126Z,24.78
2023-04-22T10:46:56.154Z,24.82
2023-04-22T10:47:56.168Z,24.76
2023-04-22T10:48:56.162Z,24.78
2023-04-22T10:49:56.217Z,24.81
2023-04-22T10:50:56.218Z,24.79
2023-04-22T10:51:56.284Z,24.76
2023-04-22T10:52:56.323Z,24.76
2023-04-22T10:53:56.360Z,24.78
2023-04-22T10:54:56.355Z,24.78
2023-04-22T10:55:56.417Z,24.76
2023-04-22T10:56:58.209Z,24.81
2023-04-22T10:57:56.468Z,24.78
2023-04-22T10:58:56.497Z,24.81
2023-04-22T10:59:56.568Z,24.78
2023-04-22T11:00:56.566Z,24.78
2023-04-22T11:01:56.644Z,24.75
2023-04-22T11:02:56.727Z,24.86
2023-04-22T11:03:56.767Z,24.79
2023-04-22T11:04:56.676Z,24.82
2023-04-22T11:05:56.711Z,24.86
2023-04-22T11:06:56.757Z,24.84
2023-04-22T11:07:56.780Z,24.86
2023-04-22T11:08:56.818Z,24.84
2023-04-22T11:09:56.846Z,24.86
2023-04-22T11:10:56.900Z,24.81
2023-04-22T11:11:56.923Z,24.76
2023-04-22T11:12:56.953Z,24.83
2023-04-22T11:13:56.964Z,24.84
2023-04-22T11:14:56.993Z,24.82
2023-04-22T11:15:57.119Z,24.79
2023-04-22T11:16:57.042Z,24.82
2023-04-22T11:17:57.179Z,24.78
2023-04-22T11:18:57.099Z,24.78
2023-04-22T11:19:57.130Z,24.74
2023-04-22T11:20:57.182Z,24.77
2023-04-22T11:21:57.210Z,24.80
2023-04-22T11:22:57.242Z,24.79
2023-04-22T11:23:57.276Z,24.74
2023-04-22T11:24:57.290Z,24.76
2023-04-22T11:25:57.314Z,24.76
2023-04-22T11:26:57.368Z,24.80
2023-04-22T11:27:57.384Z,24.77
2023-04-22T11:28:57.403Z,24.76
2023-04-22T11:29:57.455Z,24.70
2023-04-22T11:30:57.529Z,24.70
2023-04-22T11:31:57.680Z,24.76
2023-04-22T11:32:57.597Z,24.74
2023-04-22T11:33:57.592Z,24.74
2023-04-22T11:34:57.636Z,24.71
2023-04-22T11:35:57.672Z,24.77
2023-04-22T11:36:57.675Z,24.73
2023-04-22T11:37:57.708Z,24.67
2023-04-22T11:38:57.759Z,24.76
2023-04-22T11:40:17.356Z,24.71
2023-04-22T11:40:58.815Z,24.80
2023-04-22T11:41:57.784Z,24.74
2023-04-22T11:42:57.755Z,24.74
2023-04-22T11:43:57.786Z,24.77
2023-04-22T11:44:57.861Z,24.78
2023-04-22T11:45:57.838Z,24.77
2023-04-22T11:46:57.725Z,24.71
2023-04-22T11:47:57.780Z,24.77
2023-04-22T11:48:57.743Z,24.73
2023-04-22T11:49:57.721Z,24.76
2023-04-22T11:50:57.750Z,24.73
2023-04-22T11:51:57.773Z,24.71
2023-04-22T11:52:57.719Z,24.73
2023-04-22T11:53:57.684Z,24.73
2023-04-22T11:54:57.707Z,24.69
2023-04-22T11:55:57.700Z,24.72
2023-04-22T11:56:57.703Z,24.71
2023-04-22T11:57:57.688Z,24.69
2023-04-22T11:58:57.695Z,24.72
2023-04-22T11:59:57.730Z,24.71
2023-04-22T12:00:57.735Z,24.76
2023-04-22T12:01:57.812Z,24.69
2023-04-22T12:02:57.926Z,24.65
2023-04-22T12:03:57.892Z,24.69
2023-04-22T12:04:57.892Z,24.72
2023-04-22T12:05:57.878Z,24.69
2023-04-22T12:06:57.912Z,24.66
2023-04-22T12:07:57.942Z,24.68
2023-04-22T12:08:57.998Z,24.66
2023-04-22T12:09:58.068Z,24.66
2023-04-22T12:10:58.058Z,24.69
2023-04-22T12:11:58.102Z,24.67
2023-04-22T12:12:58.107Z,24.66
2023-04-22T12:13:58.126Z,24.65
2023-04-22T12:14:58.172Z,24.65
2023-04-22T12:15:58.202Z,24.66
2023-04-22T12:16:58.269Z,24.62
2023-04-22T12:17:58.313Z,24.62
2023-04-22T12:18:58.266Z,24.61
2023-04-22T12:19:58.287Z,24.61
2023-04-22T12:20:58.317Z,24.61
2023-04-22T12:21:58.337Z,24.62
2023-04-22T12:22:58.326Z,24.58
2023-04-22T12:23:58.338Z,24.58
2023-04-22T12:24:58.342Z,24.58
2023-04-22T12:25:58.310Z,24.59
2023-04-22T12:26:58.343Z,24.60
2023-04-22T12:27:58.369Z,24.57
2023-04-22T12:28:58.447Z,24.61
2023-04-22T12:29:58.419Z,24.64
2023-04-22T12:30:58.461Z,24.63
2023-04-22T12:31:58.479Z,24.60
2023-04-22T12:32:58.548Z,24.60
2023-04-22T12:33:58.618Z,24.58
2023-04-22T12:34:58.624Z,24.60
2023-04-22T12:35:58.668Z,24.62
2023-04-22T12:36:58.690Z,24.61
2023-04-22T12:37:58.754Z,24.58
2023-04-22T12:38:58.774Z,24.60
2023-04-22T12:39:58.827Z,24.58
2023-04-22T12:40:58.872Z,24.59
2023-04-22T12:41:58.942Z,24.61
2023-04-22T12:42:58.920Z,24.58
2023-04-22T12:43:58.999Z,24.60
2023-04-22T12:44:59.005Z,24.57
2023-04-22T12:45:59.083Z,24.58
2023-04-22T12:46:59.096Z,24.54
2023-04-22T12:47:59.169Z,24.58
2023-04-22T12:48:59.194Z,24.55
2023-04-22T12:49:59.143Z,24.58
2023-04-22T12:50:59.124Z,24.57
2023-04-22T12:51:59.142Z,24.54
2023-04-22T12:52:59.150Z,24.55